createdAt,value
2022-09-23T00:09:24.683Z,1004.45
2022-09-23T00:19:31.071Z,1004.43
2022-09-23T00:29:37.166Z,1004.33
2022-09-23T00:39:43.260Z,1004.33
2022-09-23T00:49:49.577Z,1004.23
2022-09-23T00:59:55.892Z,1004.19
2022-09-23T01:10:02.528Z,1004.15
2022-09-23T01:20:09.779Z,1004.05
2022-09-23T01:30:15.506Z,1003.91
2022-09-23T01:40:23.552Z,1003.83
2022-09-23T01:50:29.737Z,1003.84
2022-09-23T02:00:35.659Z,1003.73
2022-09-23T02:10:42.193Z,1003.66
2022-09-23T02:20:48.539Z,1003.66
2022-09-23T02:30:54.517Z,1003.56
2022-09-23T02:41:00.380Z,1003.50
2022-09-23T02:51:06.424Z,1003.47
2022-09-23T03:01:12.328Z,1003.43
2022-09-23T03:11:19.348Z,1003.40
2022-09-23T03:21:24.653Z,1003.34
2022-09-23T03:31:33.090Z,1003.30
2022-09-23T03:41:39.498Z,1003.25
2022-09-23T03:51:46.877Z,1003.04
2022-09-23T04:01:52.404Z,1003.06
2022-09-23T04:11:59.467Z,1003.00
2022-09-23T04:22:04.596Z,1002.84
2022-09-23T04:32:11.441Z,1002.78
2022-09-23T04:42:16.904Z,1002.85
2022-09-23T04:52:24.900Z,1002.87
2022-09-23T05:02:30.647Z,1002.91
2022-09-23T05:12:37.119Z,1002.97
2022-09-23T05:22:43.393Z,1002.97
2022-09-23T05:32:49.989Z,1002.96
2022-09-23T05:42:57.035Z,1002.98
2022-09-23T05:53:03.627Z,1002.94
2022-09-23T06:03:09.439Z,1002.91
2022-09-23T06:13:16.585Z,1002.99
2022-09-23T06:23:26.289Z,1002.96
2022-09-23T06:33:37.208Z,1002.98
2022-09-23T06:43:43.549Z,1002.93
2022-09-23T06:53:52.447Z,1002.90
2022-09-23T07:03:59.372Z,1002.85
2022-09-23T07:14:07.601Z,1002.80
2022-09-23T07:24:13.522Z,1002.80
2022-09-23T07:34:19.746Z,1002.84
2022-09-23T07:44:25.459Z,1002.83
2022-09-23T07:54:32.663Z,1002.83
2022-09-23T08:04:38.498Z,1002.79
2022-09-23T08:14:46.846Z,1002.75
2022-09-23T08:24:55.028Z,1002.64
2022-09-23T08:35:02.223Z,1002.50
2022-09-23T08:45:08.706Z,1002.39
2022-09-23T08:55:14.738Z,1002.28
2022-09-23T09:05:20.917Z,1002.23
2022-09-23T09:15:27.406Z,1002.10
2022-09-23T09:25:34.368Z,1001.99
2022-09-23T09:35:41.379Z,1001.90
2022-09-23T09:45:47.150Z,1001.81
2022-09-23T09:55:55.204Z,1001.75
2022-09-23T10:06:01.311Z,1001.59
2022-09-23T10:16:09.121Z,1001.53
2022-09-23T10:26:14.755Z,1001.41
2022-09-23T10:36:20.368Z,1001.44
2022-09-23T10:46:26.110Z,1001.30
2022-09-23T10:56:31.678Z,1001.10
2022-09-23T11:06:37.901Z,1001.04
2022-09-23T11:16:44.644Z,1001.00
2022-09-23T11:26:51.507Z,1000.81
2022-09-23T11:36:57.825Z,1000.69
2022-09-23T11:47:03.823Z,1000.59
2022-09-23T11:57:10.387Z,1000.49
2022-09-23T12:07:16.509Z,1000.42
2022-09-23T12:17:23.032Z,1000.33
2022-09-23T12:27:29.315Z,1000.32
2022-09-23T12:37:35.269Z,1000.16
2022-09-23T12:47:41.353Z,1000.06
2022-09-23T12:57:47.791Z,999.85
2022-09-23T13:07:54.370Z,999.80
2022-09-23T13:18:00.428Z,999.73
2022-09-23T13:28:06.643Z,999.54
2022-09-23T13:38:13.031Z,999.34
2022-09-23T13:48:18.727Z,999.31
2022-09-23T13:58:24.948Z,999.16
2022-09-23T14:08:31.404Z,999.05
2022-09-23T14:18:37.133Z,999.02
2022-09-23T14:28:43.491Z,998.89
2022-09-23T14:38:49.479Z,998.86
2022-09-23T14:48:55.164Z,998.89
2022-09-23T14:59:00.929Z,998.88
2022-09-23T15:09:07.111Z,998.75
2022-09-23T15:19:13.276Z,998.73
2022-09-23T15:29:19.059Z,998.65
2022-09-23T15:39:35.459Z,998.63
2022-09-23T15:49:36.089Z,998.49
2022-09-23T15:59:42.135Z,998.44
2022-09-23T16:09:48.366Z,998.41
2022-09-23T16:19:54.381Z,998.44
2022-09-23T16:29:59.601Z,998.39
2022-09-23T16:40:05.279Z,998.36
2022-09-23T16:50:10.292Z,998.43
2022-09-23T17:01:46.255Z,998.39
2022-09-23T17:11:51.233Z,998.41
2022-09-23T17:21:56.727Z,998.41
2022-09-23T17:32:02.436Z,998.34
2022-09-23T17:42:07.894Z,998.38
2022-09-23T17:52:13.573Z,998.42
2022-09-23T18:02:19.240Z,998.52
2022-09-23T18:12:24.720Z,998.51
2022-09-23T18:22:29.686Z,998.56
2022-09-23T18:32:35.105Z,998.69
2022-09-23T18:42:40.519Z,998.63
2022-09-23T18:52:46.036Z,998.55
2022-09-23T19:02:51.750Z,998.51
2022-09-23T19:12:57.079Z,998.48
2022-09-23T19:23:02.882Z,998.53
2022-09-23T19:33:08.083Z,998.50
2022-09-23T19:43:13.455Z,998.50
2022-09-23T19:53:19.090Z,998.49
2022-09-23T20:03:24.226Z,998.49
2022-09-23T20:13:29.684Z,998.45
2022-09-23T20:23:35.158Z,998.35
2022-09-23T20:33:42.060Z,998.26
2022-09-23T20:43:47.503Z,998.22
2022-09-23T20:53:55.360Z,998.21
2022-09-23T21:04:01.244Z,998.20
2022-09-23T21:14:08.815Z,998.15
2022-09-23T21:34:26.486Z,998.17
2022-09-23T21:44:31.873Z,998.19
2022-09-23T21:54:38.694Z,998.28
2022-09-23T22:04:44.563Z,998.20
2022-09-23T22:14:51.616Z,998.14
2022-09-23T22:24:56.482Z,998.06
2022-09-23T22:35:03.494Z,998.03
2022-09-23T22:45:09.125Z,998.05
2022-09-23T22:55:15.634Z,998.03
2022-09-23T23:05:22.592Z,997.88
2022-09-23T23:15:30.562Z,997.82
2022-09-23T23:25:36.634Z,997.68
2022-09-23T23:35:43.746Z,997.59
2022-09-23T23:45:49.419Z,997.60
2022-09-23T23:55:55.982Z,997.56
